Latest Weather Observations for Mildura

IDV60801

Issued at 1:35 am EST Saturday 2 August 2014 (issued every 30 minutes, with the page automatically refreshed every 10 minutes)

About weather observations | Map of weather stations | Latest weather observations for VIC | Other Formats
Station Details ID: 076031 Name: MILDURA AIRPORT Lat: -34.24 Lon: 142.09 Height: 50.0 m
Data from the previous 72 hours. | See also: Recent months at Mildura
Date/Time
EST
Temp
°C
App
Temp
°C
Dew
Point
Rel
Hum
%
Delta-T
°C
Wind Press
QNH
hPa
Press
MSL
hPa
Rain
since 9 am
mm
Dir
 
Spd
km/h
Gust
km/h
Spd
kts
Gust
kts
02/01:30am 2.7 -0.8 1.1 89 0.6 SW 9 13 5 7 1027.9 - 1.2
02/01:00am 3.0 -0.9 1.4 89 0.6 SW 11 17 6 9 1027.7 1027.8 1.2
02/12:30am 3.1 -0.4 1.5 89 0.6 SW 9 13 5 7 1027.4 - 1.2
02/12:00am 3.7 -0.1 1.6 86 0.8 SW 11 17 6 9 1027.2 1027.3 1.2
 
Date/Time
EST
Temp
°C
App
Temp
°C
Dew
Point
Rel
Hum
%
Delta-T
°C
Wind Press
QNH
hPa
Press
MSL
hPa
Rain
since 9 am
mm
Dir
 
Spd
km/h
Gust
km/h
Spd
kts
Gust
kts
01/11:30pm 3.1 -0.8 1.3 88 0.7 WSW 11 17 6 9 1027.0 - 1.2
01/11:00pm 2.4 -1.9 1.3 92 0.4 W 13 19 7 10 1026.8 1026.9 1.2
01/10:30pm 2.4 -1.4 1.6 94 0.3 W 11 15 6 8 1026.5 - 1.2
01/10:00pm 2.0 -1.0 1.7 98 0.1 W 7 7 4 4 1026.3 1026.4 1.2
01/09:30pm 2.8 0.0 2.3 96 0.2 WSW 6 7 3 4 1025.8 - 1.2
01/09:00pm 3.4 0.5 2.4 93 0.4 W 7 9 4 5 1025.6 1025.7 1.2
01/08:30pm 4.7 1.4 2.7 87 0.8 WSW 9 15 5 8 1025.2 - 1.2
01/08:00pm 5.2 1.5 2.5 83 1.1 SW 11 15 6 8 1024.6 1024.6 1.2
01/07:30pm 5.1 1.1 2.9 86 0.9 WSW 13 17 7 9 1024.1 - 1.2
01/07:00pm 5.2 1.6 3.0 86 0.9 WSW 11 17 6 9 1023.6 1023.6 1.2
01/06:30pm 4.6 1.9 3.6 93 0.4 W 7 11 4 6 1023.0 - 1.0
01/06:00pm 5.5 2.4 3.8 89 0.7 W 9 13 5 7 1022.4 1022.4 1.0
01/05:30pm 6.6 3.2 4.0 83 1.1 SW 11 19 6 10 1021.8 - 1.0
01/05:00pm 6.5 2.8 4.2 85 1.0 SW 13 20 7 11 1021.5 1021.5 1.0
01/04:30pm 7.5 0.8 3.8 77 1.6 SW 28 57 15 31 1021.0 - 0.8
01/04:28pm 9.2 2.3 2.3 62 2.9 SW 28 57 15 31 1020.8 - 0.8
01/04:00pm 10.4 4.5 1.5 54 3.7 SW 22 37 12 20 1019.7 1019.7 0.8
01/03:30pm 9.1 4.2 4.1 71 2.2 SW 19 28 10 15 1019.3 - 0.8
01/03:00pm 8.0 -0.9 3.0 71 2.1 SW 39 72 21 39 1018.9 1018.9 0.4
01/02:56pm 10.6 2.3 0.0 48 4.3 SW 33 72 18 39 1018.5 - 0.4
01/02:30pm 11.8 4.6 0.4 45 4.7 WSW 28 50 15 27 1017.7 - 0.4
01/02:06pm 10.8 3.7 1.5 52 3.9 WSW 28 46 15 25 1017.5 - 0.4
01/02:00pm 10.9 4.3 2.2 55 3.7 WSW 26 41 14 22 1017.5 1017.5 0.4
01/01:30pm 10.6 2.8 1.8 54 3.7 WSW 32 52 17 28 1017.0 - 0.4
01/01:00pm 10.7 3.3 2.0 55 3.7 WSW 30 50 16 27 1016.7 1016.8 0.2
01/12:32pm 9.8 3.2 4.1 67 2.5 WSW 28 46 15 25 1016.7 - 0.2
01/12:30pm 10.3 4.3 5.5 72 2.2 WSW 26 44 14 24 1016.6 - 0.2
01/12:02pm 11.1 4.0 1.3 51 4.1 WSW 28 46 15 25 1016.2 - 0.0
01/12:00pm 11.3 3.8 1.3 50 4.2 WSW 30 46 16 25 1016.1 1016.2 0.0
01/11:30am 11.2 3.8 1.8 52 4.0 W 30 48 16 26 1016.2 - 0.0
01/11:27am 11.3 3.9 1.9 52 4.0 W 30 48 16 26 1016.0 - 0.0
01/11:00am 10.8 3.1 2.1 55 3.7 W 32 48 17 26 1015.9 1016.0 0.0
01/10:37am 10.1 2.7 2.1 57 3.4 W 30 48 16 26 1015.6 - 0.0
01/10:30am 9.7 2.8 2.7 61 3.0 W 28 44 15 24 1015.6 - 0.0
01/10:07am 9.1 1.9 2.8 64 2.7 W 30 52 16 28 1015.2 - 0.0
01/10:00am 9.0 1.8 2.9 65 2.6 W 30 44 16 24 1015.0 1015.1 0.0
01/09:30am 7.4 0.7 3.4 76 1.7 W 28 44 15 24 1014.8 - 0.0
01/09:00am 8.0 1.5 2.5 68 2.3 WNW 26 37 14 20 1014.0 1014.1 0.4
01/08:30am 7.1 1.7 2.3 71 2.0 WNW 20 32 11 17 1013.5 - 0.4
01/08:00am 5.9 1.0 2.2 77 1.5 NW 17 26 9 14 1013.1 1013.2 0.4
01/07:30am 6.0 0.5 2.1 76 1.6 WNW 20 30 11 16 1012.8 - 0.4
01/07:00am 5.6 0.3 2.1 78 1.4 WNW 19 30 10 16 1012.3 1012.4 0.4
01/06:30am 5.6 0.8 2.4 80 1.3 WNW 17 26 9 14 1011.9 - 0.4
01/06:00am 5.4 0.6 2.5 81 1.2 WNW 17 24 9 13 1011.4 1011.5 0.4
01/05:30am 5.2 0.4 2.5 83 1.1 NW 17 22 9 12 1011.2 - 0.4
01/05:00am 5.7 0.5 2.5 80 1.3 NW 19 30 10 16 1011.2 1011.3 0.4
01/04:30am 5.7 0.6 2.8 81 1.2 NW 19 28 10 15 1011.0 - 0.4
01/04:00am 6.1 0.8 3.0 80 1.3 WNW 20 28 11 15 1010.9 1011.0 0.4
01/03:30am 6.2 1.5 3.1 80 1.3 WNW 17 30 9 16 1010.9 - 0.4
01/03:00am 5.9 1.6 3.3 83 1.1 NW 15 20 8 11 1011.2 1011.3 0.4
01/02:30am 6.2 2.3 3.6 83 1.1 NW 13 19 7 10 1011.2 - 0.4
01/02:00am 6.7 2.6 4.1 83 1.1 WNW 15 22 8 12 1011.2 1011.3 0.4
01/01:30am 7.0 2.8 4.0 81 1.3 WNW 15 24 8 13 1011.3 - 0.4
01/01:00am 6.9 2.8 4.1 82 1.2 W 15 20 8 11 1011.2 1011.3 0.4
01/12:30am 7.6 3.6 4.9 83 1.2 W 15 22 8 12 1010.9 - 0.4
01/12:00am 7.7 3.8 5.2 84 1.1 WNW 15 19 8 10 1010.8 1010.9 0.4
 
Date/Time
EST
Temp
°C
App
Temp
°C
Dew
Point
Rel
Hum
%
Delta-T
°C
Wind Press
QNH
hPa
Press
MSL
hPa
Rain
since 9 am
mm
Dir
 
Spd
km/h
Gust
km/h
Spd
kts
Gust
kts
31/11:30pm 7.4 3.9 5.6 88 0.8 W 13 17 7 9 1010.9 - 0.4
31/11:00pm 8.5 5.1 6.1 85 1.1 W 13 17 7 9 1010.6 1010.7 0.4
31/10:30pm 8.2 5.4 7.1 93 0.5 W 11 17 6 9 1010.2 - 0.4
31/10:00pm 8.5 4.2 6.8 89 0.8 SW 19 30 10 16 1010.2 1010.3 0.4
31/09:30pm 9.4 5.0 7.3 87 1.0 WSW 20 33 11 18 1009.7 - 0.2
31/09:00pm 9.8 4.2 7.3 84 1.2 WSW 26 41 14 22 1009.0 1009.1 0.2
31/08:30pm 11.2 5.6 8.6 84 1.3 W 28 43 15 23 1008.4 - 0.2
31/08:01pm 11.4 5.8 8.8 84 1.3 W 28 46 15 25 1007.9 - 0.2
31/08:00pm 11.4 5.4 8.8 84 1.3 W 30 46 16 25 1007.9 1008.0 0.2
31/07:41pm 11.5 6.0 9.1 85 1.2 W 28 48 15 26 1007.6 - 0.0
31/07:30pm 11.6 6.1 9.0 84 1.3 W 28 43 15 23 1007.2 - 0.0
31/07:00pm 12.5 8.0 6.9 68 2.7 W 20 32 11 17 1006.9 1007.0 0.0
31/06:30pm 12.6 8.0 6.6 67 2.9 WSW 20 41 11 22 1006.2 - 0.0
31/06:00pm 13.3 5.8 6.4 63 3.3 SW 35 56 19 30 1005.5 1005.6 0.0
31/05:55pm 13.5 5.7 6.7 63 3.3 SW 37 56 20 30 1005.4 - 0.0
31/05:43pm 17.5 8.7 3.6 39 6.5 WSW 39 52 21 28 1004.6 - 0.0
31/05:30pm 20.7 10.1 -3.5 19 10.0 WNW 43 63 23 34 1004.0 - 0.0
31/05:00pm 21.4 11.8 -4.6 17 10.7 WNW 37 67 20 36 1003.7 1003.7 0.0
31/04:30pm 22.2 11.5 -4.6 16 11.0 WNW 43 69 23 37 1003.2 - 0.0
31/04:00pm 23.0 12.8 -3.0 17 11.2 WNW 41 59 22 32 1002.9 1002.9 0.0
31/03:30pm 23.1 12.2 -4.7 15 11.5 WNW 44 67 24 36 1002.8 - 0.0
31/03:00pm 23.1 12.6 -5.8 14 11.8 NW 41 63 22 34 1003.0 1003.0 0.0
31/02:30pm 23.1 12.3 -5.3 14 11.6 WNW 43 72 23 39 1003.5 - 0.0
31/02:00pm 23.3 13.1 -6.4 13 12.0 WNW 39 61 21 33 1004.0 1004.1 0.0
31/01:36pm 23.4 12.2 -7.2 12 12.1 WNW 44 65 24 35 1004.4 - 0.0
31/01:30pm 23.3 12.8 -6.4 13 11.9 WNW 41 57 22 31 1004.5 - 0.0
31/01:00pm 22.9 11.1 -5.9 14 11.7 WNW 48 67 26 36 1005.1 1005.2 0.0
31/12:30pm 22.2 11.7 -5.7 15 11.3 WNW 41 67 22 36 1005.8 - 0.0
31/12:02pm 21.7 12.5 -4.4 17 10.7 NW 35 54 19 29 1006.4 - 0.0
31/12:00pm 21.8 12.6 -4.7 16 10.9 NW 35 52 19 28 1006.5 1006.6 0.0
31/11:53am 21.6 12.9 -3.7 18 10.6 NW 33 52 18 28 1006.7 - 0.0
31/11:30am 21.3 12.6 -3.5 18 10.4 NW 33 50 18 27 1007.2 - 0.0
31/11:03am 20.4 11.8 -3.8 19 10.0 NNW 32 50 17 27 1007.8 - 0.0
31/11:00am 20.5 12.3 -3.6 19 10.0 NNW 30 46 16 25 1007.9 1008.0 0.0
31/10:40am 19.3 11.6 -2.7 22 9.2 NNW 28 48 15 26 1008.3 - 0.0
31/10:30am 18.6 11.0 -2.1 24 8.7 NNW 28 41 15 22 1008.5 - 0.0
31/10:00am 17.3 9.4 -1.9 27 8.0 NNW 30 46 16 25 1008.8 1008.9 0.0
31/09:48am 16.9 9.3 -1.9 27 7.8 NNW 28 46 15 25 1008.9 - 0.0
31/09:30am 16.2 8.3 -1.3 30 7.3 NNW 30 43 16 23 1009.0 - 0.0
31/09:11am 15.6 8.1 -1.2 31 7.0 NNW 28 46 15 25 1009.1 - 0.0
31/09:00am 15.3 8.6 -1.0 32 6.8 NNW 24 41 13 22 1009.1 1009.2 0.0
31/08:30am 13.7 7.6 0.1 39 5.7 N 22 35 12 19 1009.4 - 0.0
31/08:00am 13.5 7.7 0.2 40 5.6 NNW 20 33 11 18 1009.6 1009.7 0.0
31/07:30am 10.6 6.0 1.6 53 3.8 N 15 22 8 12 1009.6 - 0.0
31/07:00am 9.5 5.4 2.2 60 3.1 N 13 19 7 10 1009.7 1009.8 0.0
31/06:30am 9.6 5.1 2.3 60 3.1 N 15 20 8 11 1009.8 - 0.0
31/06:00am 10.0 5.2 2.5 59 3.2 N 17 22 9 12 1010.0 1010.1 0.0
31/05:30am 10.5 6.1 2.6 58 3.4 N 15 22 8 12 1010.1 - 0.0
31/05:00am 10.5 5.8 3.2 60 3.2 N 17 22 9 12 1010.4 1010.5 0.0
31/04:30am 10.1 5.8 3.5 63 2.9 N 15 20 8 11 1010.7 - 0.0
31/04:00am 10.6 6.3 3.3 60 3.2 N 15 20 8 11 1011.1 1011.2 0.0
31/03:30am 10.3 6.5 4.0 65 2.8 N 13 20 7 11 1011.8 - 0.0
31/03:00am 10.7 6.7 4.7 66 2.7 N 15 19 8 10 1012.2 1012.3 0.0
31/02:30am 9.9 6.9 5.8 75 1.9 N 11 15 6 8 1012.5 - 0.0
31/02:00am 8.7 5.8 6.5 86 1.0 N 11 15 6 8 1013.1 1013.2 0.0
31/01:30am 9.1 6.3 7.0 87 1.0 N 11 15 6 8 1013.3 - 0.0
31/01:00am 8.1 4.8 6.6 90 0.7 N 13 15 7 8 1013.5 1013.6 0.0
31/12:30am 7.4 4.5 6.3 93 0.5 N 11 13 6 7 1014.0 - 0.0
31/12:00am 8.1 5.6 6.6 90 0.7 N 9 11 5 6 1014.2 1014.3 0.0
 
Date/Time
EST
Temp
°C
App
Temp
°C
Dew
Point
Rel
Hum
%
Delta-T
°C
Wind Press
QNH
hPa
Press
MSL
hPa
Rain
since 9 am
mm
Dir
 
Spd
km/h
Gust
km/h
Spd
kts
Gust
kts
30/11:30pm 8.7 6.9 7.2 90 0.7 N 6 7 3 4 1014.5 - 0.0
30/11:00pm 8.7 6.8 7.4 91 0.6 N 7 7 4 4 1014.9 1015.0 0.0
30/10:30pm 9.7 8.1 8.0 89 0.8 N 6 7 3 4 1015.4 - 0.0
30/10:00pm 10.2 8.2 7.3 82 1.4 N 7 9 4 5 1015.6 1015.7 0.0
30/09:30pm 10.1 9.5 7.6 84 1.2 CALM 0 0 0 0 1015.6 - 0.0
30/09:00pm 10.4 9.8 7.5 82 1.4 CALM 0 0 0 0 1015.5 1015.6 0.0
30/08:30pm 10.9 10.3 7.6 80 1.6 CALM 0 0 0 0 1015.8 - 0.0
30/08:00pm 12.5 10.7 7.8 73 2.3 WNW 7 7 4 4 1015.8 1015.9 0.0
30/07:30pm 12.8 11.0 7.9 72 2.4 W 7 9 4 5 1015.8 - 0.0
30/07:00pm 13.5 11.7 8.1 70 2.7 W 7 7 4 4 1015.7 1015.8 0.0
30/06:30pm 15.1 13.6 8.4 64 3.4 W 6 9 3 5 1015.6 - 0.0
30/06:00pm 17.1 15.2 7.6 53 4.8 NW 7 11 4 6 1015.6 1015.7 0.0
30/05:30pm 18.6 15.5 7.1 47 5.8 WNW 13 22 7 12 1015.7 - 0.0
30/05:00pm 19.5 15.2 6.8 43 6.4 NW 19 26 10 14 1015.6 1015.7 0.0
30/04:30pm 20.0 15.0 6.5 41 6.8 NW 22 33 12 18 1015.6 - 0.0
30/04:00pm 19.8 15.3 7.0 43 6.5 WNW 20 30 11 16 1015.8 1015.9 0.0
30/03:30pm 20.1 15.2 6.9 42 6.7 WNW 22 37 12 20 1016.1 - 0.0
30/03:00pm 20.2 15.3 6.8 41 6.8 WNW 22 33 12 18 1016.3 1016.4 0.0
30/02:30pm 19.7 15.3 7.3 44 6.3 NW 20 33 11 18 1016.6 - 0.0
30/02:00pm 19.9 14.3 7.1 43 6.5 NW 26 39 14 21 1017.2 1017.2 0.0
30/01:30pm 18.7 14.4 7.7 48 5.6 W 20 30 11 16 1017.5 - 0.0
30/01:00pm 18.9 14.6 8.0 49 5.6 WNW 20 30 11 16 1018.1 1018.1 0.0
30/12:30pm 18.9 14.3 8.2 50 5.5 W 22 32 12 17 1018.5 - 0.0
30/12:00pm 18.4 13.4 8.0 50 5.3 WNW 24 33 13 18 1019.1 1019.1 0.0
30/11:30am 18.1 14.1 8.1 52 5.1 WNW 19 30 10 16 1019.6 - 0.0
30/11:00am 17.2 13.0 8.4 56 4.5 WNW 20 30 11 16 1019.9 1020.0 0.0
30/10:30am 16.7 12.2 8.5 58 4.2 WNW 22 32 12 17 1020.1 - 0.0
30/10:00am 15.6 11.8 7.6 59 4.0 WNW 17 30 9 16 1020.1 1020.2 0.0
30/09:30am 14.3 9.8 7.1 62 3.5 WNW 20 28 11 15 1020.2 - 0.0
30/09:00am 12.8 9.3 7.0 68 2.8 NW 15 22 8 12 1019.8 1019.9 0.0
30/08:30am 11.0 7.8 6.8 75 2.0 NW 13 19 7 10 1019.7 - 0.0
30/08:00am 9.7 7.2 6.7 81 1.4 NW 9 11 5 6 1019.6 1019.6 0.0
30/07:30am 9.1 6.6 6.5 84 1.2 NNW 9 15 5 8 1019.3 - 0.0
30/07:00am 9.1 7.0 6.5 84 1.2 NNW 7 11 4 6 1018.9 1018.9 0.0
30/06:30am 9.6 6.8 6.8 83 1.3 NW 11 15 6 8 1018.9 - 0.0
30/06:00am 9.4 7.0 6.8 84 1.2 NNW 9 13 5 7 1018.6 1018.6 0.0
30/05:30am 9.9 7.4 6.7 80 1.5 NW 9 13 5 7 1018.4 - 0.0
30/05:00am 10.0 7.6 6.8 80 1.5 NNW 9 11 5 6 1018.2 1018.2 0.0
30/04:30am 10.2 7.8 6.8 79 1.6 NNW 9 13 5 7 1018.2 - 0.0
30/04:00am 10.7 8.3 6.9 77 1.8 NNW 9 13 5 7 1018.1 1018.1 0.0
30/03:30am 11.2 8.5 7.2 76 1.9 NNW 11 13 6 7 1018.4 - 0.0
30/03:00am 11.3 9.0 7.3 76 1.9 NW 9 13 5 7 1018.7 1018.7 0.0
30/02:30am 13.2 10.2 7.9 70 2.6 NW 13 17 7 9 1018.6 - 0.0
30/02:00am 14.1 11.1 7.8 66 3.1 WNW 13 20 7 11 1018.7 1018.7 0.0

Other Formats:

Comma delimited format used in spreadsheet applications
http://www.bom.gov.au/fwo/IDV60801/IDV60801.94693.axf

JavaScript Object Notation format (JSON) in row-major order
http://www.bom.gov.au/fwo/IDV60801/IDV60801.94693.json